Darstellungsparameter: Aktuell verwendete Einstellungen:
Skalierung der Graphiken ... ?
xyx+y,   Skalierungsfaktor:      Skalierung: Modus: x, Faktor: 1
Darstellungszeitraum ... ?
Vom - - bis: - -   Zeitraum: 03.07.2022 - 03.07.2022
Min/Max/Avg-Anzeige ... ?
Zeige MMA aktuell
Zeige MMA Monat
Zeige MMA alles
Zeige --A aktuell
Zeige --A Monat
Zeige --A alles
Keine MMA-Anzeige
MMA:
Keine MMA-Graphiken
MMA-Basis: 03.07.2022 - 03.07.2022
Quicknavigation für Darstellung... ?
Tage:      1T, 2T, 3T, 5T -1T -2T -3T -5T +1T +2T +3T +5T
Wochen: 1W, 2W, 3W -1W -2W -3W +1W +2W +3W
Monate: 1M, 3M, 6M -1M -3M -6M +1M +3M +6M
Jahre:    1J, 3J, 5J, 10J -1J -3J -5J -10J +1J +3J +5J +10J
Nutze für die Darstellung ... ?
Originaldaten oder Mittelwerte auf ...
Stundenbasis Tagesbasis Wochenbasis
Monatsbasis Jahresbasis      Datenbasis: Original-Daten
Darstellen als:
Statistik (Auto) Statistik J:M      Darstellung:
Zur Graphik,    zurück zur Übersicht aller Sensoren.
 
Tabellarische Datenbersicht: ?
 
Sensor: Nr:Datum:Temp:Abs-Feuchte:Windchill:Wind:
Aussen-T/F 1 03-07-2022 02:00:00 14.8 C 10.51 g/m*3 14.8 C 1.6 km/h
2 03-07-2022 02:05:00 14.7 C 10.58 g/m*3 14.7 C 0 km/h
3 03-07-2022 02:10:00 14.7 C 10.58 g/m*3 14.7 C 0 km/h
4 03-07-2022 02:15:00 14.6 C 10.51 g/m*3 14.6 C 0 km/h
5 03-07-2022 02:20:00 14.6 C 10.64 g/m*3 14.6 C 0 km/h
6 03-07-2022 02:25:00 14.5 C 10.57 g/m*3 14.5 C 1.6 km/h
7 03-07-2022 02:30:00 14.5 C 10.57 g/m*3 14.5 C 0 km/h
8 03-07-2022 02:35:00 14.5 C 10.57 g/m*3 14.5 C 3.2 km/h
9 03-07-2022 02:40:00 14.4 C 10.63 g/m*3 14.4 C 0 km/h
10 03-07-2022 02:45:00 14.5 C 10.7 g/m*3 14.5 C 0 km/h
11 03-07-2022 02:50:00 14.4 C 10.63 g/m*3 14.4 C 0 km/h
12 03-07-2022 02:55:00 14.4 C 10.63 g/m*3 14.4 C 0 km/h
13 03-07-2022 03:00:00 14.4 C 10.63 g/m*3 14.4 C 0 km/h
14 03-07-2022 03:05:00 14.3 C 10.57 g/m*3 14.3 C 0 km/h
15 03-07-2022 03:10:00 14.3 C 10.57 g/m*3 14.3 C 0 km/h
16 03-07-2022 03:15:00 14.3 C 10.57 g/m*3 14.3 C 0 km/h
17 03-07-2022 03:20:00 14.2 C 10.5 g/m*3 14.2 C 0 km/h
18 03-07-2022 03:25:00 14.2 C 10.5 g/m*3 14.2 C 0 km/h
19 03-07-2022 03:30:00 14.2 C 10.5 g/m*3 14.2 C 0 km/h
20 03-07-2022 03:35:00 14.1 C 10.44 g/m*3 14.1 C 0 km/h
21 03-07-2022 03:40:00 14.1 C 10.44 g/m*3 14.1 C 0 km/h
22 03-07-2022 03:45:00 14 C 10.49 g/m*3 14 C 0 km/h
23 03-07-2022 03:50:00 13.9 C 10.43 g/m*3 13.9 C 0 km/h
24 03-07-2022 03:55:00 13.8 C 10.37 g/m*3 13.8 C 0 km/h
25 03-07-2022 04:00:00 13.8 C 10.37 g/m*3 13.8 C 0 km/h
Sensor: Nr:Datum:Temp:Abs-Feuchte:Windchill:Wind:
Aussen-T/F 26 03-07-2022 04:05:00 13.8 C 10.37 g/m*3 13.8 C 0 km/h
27 03-07-2022 04:10:00 13.7 C 10.3 g/m*3 13.7 C 0 km/h
28 03-07-2022 04:15:00 13.7 C 10.42 g/m*3 13.7 C 0 km/h
29 03-07-2022 04:20:00 13.6 C 10.36 g/m*3 13.6 C 0 km/h
30 03-07-2022 04:25:00 13.5 C 10.29 g/m*3 13.5 C 1.6 km/h
31 03-07-2022 04:30:00 13.4 C 10.23 g/m*3 13.4 C 1.6 km/h
32 03-07-2022 04:35:00 13.4 C 10.35 g/m*3 13.4 C 0 km/h
33 03-07-2022 04:40:00 13.4 C 10.35 g/m*3 13.4 C 1.6 km/h
34 03-07-2022 04:45:00 13.4 C 10.35 g/m*3 13.4 C 1.6 km/h
35 03-07-2022 04:50:00 13.4 C 10.35 g/m*3 13.4 C 1.6 km/h
36 03-07-2022 04:55:00 13.4 C 10.35 g/m*3 13.4 C 0 km/h
37 03-07-2022 05:00:00 13.4 C 10.35 g/m*3 13.4 C 0 km/h
38 03-07-2022 05:05:00 13.4 C 10.35 g/m*3 13.4 C 0 km/h
39 03-07-2022 05:10:00 13.4 C 10.35 g/m*3 13.4 C 0 km/h
40 03-07-2022 05:15:00 13.4 C 10.35 g/m*3 13.4 C 0 km/h
41 03-07-2022 05:20:00 13.3 C 10.28 g/m*3 13.3 C 0 km/h
42 03-07-2022 05:25:00 13.3 C 10.28 g/m*3 13.3 C 0 km/h
43 03-07-2022 05:30:00 13.2 C 10.22 g/m*3 13.2 C 0 km/h
44 03-07-2022 05:35:00 13.2 C 10.22 g/m*3 13.2 C 0 km/h
45 03-07-2022 05:40:00 13.1 C 10.16 g/m*3 13.1 C 0 km/h
46 03-07-2022 05:45:00 13 C 10.09 g/m*3 13 C 0 km/h
47 03-07-2022 05:50:00 12.9 C 10.14 g/m*3 12.9 C 1.6 km/h
48 03-07-2022 05:55:00 12.9 C 10.14 g/m*3 12.9 C 0 km/h
49 03-07-2022 06:00:00 12.9 C 10.14 g/m*3 12.9 C 0 km/h
50 03-07-2022 06:05:00 12.9 C 10.14 g/m*3 12.9 C 0 km/h
Sensor: Nr:Datum:Temp:Abs-Feuchte:Windchill:Wind:
Aussen-T/F 51 03-07-2022 06:10:00 12.9 C 10.14 g/m*3 12.9 C 0 km/h
52 03-07-2022 06:15:00 12.9 C 10.26 g/m*3 12.9 C 0 km/h
53 03-07-2022 06:20:00 12.9 C 10.26 g/m*3 12.9 C 0 km/h
54 03-07-2022 06:25:00 12.9 C 10.26 g/m*3 12.9 C 0 km/h
55 03-07-2022 06:30:00 12.9 C 10.26 g/m*3 12.9 C 0 km/h
56 03-07-2022 06:35:00 12.9 C 10.26 g/m*3 12.9 C 0 km/h
57 03-07-2022 06:40:00 12.9 C 10.26 g/m*3 12.9 C 0 km/h
58 03-07-2022 06:45:00 12.9 C 10.37 g/m*3 12.9 C 1.6 km/h
59 03-07-2022 06:50:00 13.1 C 10.5 g/m*3 13.1 C 6.4 km/h
60 03-07-2022 06:55:00 13.2 C 10.56 g/m*3 13.2 C 1.6 km/h
61 03-07-2022 07:00:00 13.3 C 10.63 g/m*3 13.3 C 0 km/h
62 03-07-2022 07:05:00 13.3 C 10.63 g/m*3 13.3 C 0 km/h
63 03-07-2022 07:10:00 13.3 C 10.63 g/m*3 13.3 C 1.6 km/h
64 03-07-2022 07:15:00 13.4 C 10.69 g/m*3 13.4 C 6.4 km/h
65 03-07-2022 07:20:00 13.6 C 10.83 g/m*3 13.6 C 4.8 km/h
66 03-07-2022 07:25:00 13.8 C 10.96 g/m*3 13.8 C 4.8 km/h
67 03-07-2022 07:30:00 13.8 C 10.96 g/m*3 13.8 C 0 km/h
68 03-07-2022 07:35:00 13.9 C 11.03 g/m*3 13.9 C 1.6 km/h
69 03-07-2022 07:40:00 13.9 C 11.03 g/m*3 13.9 C 1.6 km/h
70 03-07-2022 07:45:00 13.9 C 11.03 g/m*3 13.9 C 0 km/h
71 03-07-2022 07:50:00 13.9 C 10.91 g/m*3 13.9 C 1.6 km/h
72 03-07-2022 07:55:00 14 C 10.98 g/m*3 14 C 0 km/h
73 03-07-2022 08:00:00 14 C 10.98 g/m*3 14 C 1.6 km/h
74 03-07-2022 08:05:00 14.1 C 11.04 g/m*3 14.1 C 0 km/h
75 03-07-2022 08:10:00 14.1 C 11.17 g/m*3 14.1 C 1.6 km/h
Sensor: Nr:Datum:Temp:Abs-Feuchte:Windchill:Wind:
Aussen-T/F 76 03-07-2022 08:15:00 14.2 C 11.23 g/m*3 14.2 C 1.6 km/h
77 03-07-2022 08:20:00 14.2 C 11.23 g/m*3 14.2 C 1.6 km/h
78 03-07-2022 08:25:00 14.4 C 11.37 g/m*3 14.4 C 1.6 km/h
79 03-07-2022 08:30:00 14.5 C 11.44 g/m*3 14.5 C 0 km/h
80 03-07-2022 08:35:00 14.6 C 11.51 g/m*3 14.6 C 0 km/h
81 03-07-2022 08:40:00 14.7 C 11.58 g/m*3 14.7 C 0 km/h
82 03-07-2022 08:45:00 14.8 C 11.65 g/m*3 14.8 C 3.2 km/h
83 03-07-2022 08:50:00 15 C 11.8 g/m*3 15 C 3.2 km/h
84 03-07-2022 08:55:00 15.2 C 11.94 g/m*3 15.2 C 0 km/h
85 03-07-2022 09:00:00 15.4 C 11.96 g/m*3 15.4 C 0 km/h
86 03-07-2022 09:05:00 15.6 C 12.1 g/m*3 15.6 C 0 km/h
87 03-07-2022 09:10:00 15.9 C 12.32 g/m*3 15.9 C 0 km/h
88 03-07-2022 09:15:00 16.3 C 12.62 g/m*3 16.3 C 1.6 km/h
89 03-07-2022 09:20:00 16.6 C 12.57 g/m*3 16.6 C 0 km/h
90 03-07-2022 09:25:00 17.1 C 12.81 g/m*3 17.1 C 1.6 km/h
91 03-07-2022 09:30:00 17.4 C 12.89 g/m*3 17.4 C 1.6 km/h
92 03-07-2022 09:35:00 17.8 C 12.9 g/m*3 17.8 C 3.2 km/h
93 03-07-2022 09:40:00 18.2 C 13.06 g/m*3 18.2 C 1.6 km/h
94 03-07-2022 09:45:00 18.6 C 13.21 g/m*3 18.6 C 0 km/h
95 03-07-2022 09:50:00 18.8 C 13.05 g/m*3 18.8 C 1.6 km/h
96 03-07-2022 09:55:00 19 C 12.87 g/m*3 19 C 3.2 km/h
97 03-07-2022 10:00:00 19.3 C 13.1 g/m*3 19.3 C 1.6 km/h
98 03-07-2022 10:05:00 19.5 C 12.59 g/m*3 19.5 C 4.8 km/h
99 03-07-2022 10:10:00 19.9 C 12.37 g/m*3 19.9 C 3.2 km/h
100 03-07-2022 10:15:00 20.4 C 12.21 g/m*3 20.4 C 3.2 km/h
Sensor: Nr:Datum:Temp:Abs-Feuchte:Windchill:Wind:
Aussen-T/F 101 03-07-2022 10:20:00 20.9 C 12.57 g/m*3 20.9 C 3.2 km/h
102 03-07-2022 10:25:00 21.3 C 12.12 g/m*3 21.3 C 3.2 km/h
103 03-07-2022 10:30:00 21.7 C 12.59 g/m*3 21.7 C 4.8 km/h
104 03-07-2022 10:35:00 22.2 C 12.57 g/m*3 22.2 C 6.4 km/h
105 03-07-2022 10:40:00 22.6 C 12.46 g/m*3 22.6 C 4.8 km/h
106 03-07-2022 10:45:00 22.9 C 12.88 g/m*3 22.9 C 3.2 km/h
107 03-07-2022 10:50:00 23.3 C 12.96 g/m*3 23.3 C 3.2 km/h
108 03-07-2022 10:55:00 23.6 C 12.97 g/m*3 23.6 C 1.6 km/h
109 03-07-2022 11:00:00 23.7 C 12.83 g/m*3 23.7 C 1.6 km/h
110 03-07-2022 11:05:00 24 C 13.49 g/m*3 24 C 3.2 km/h
111 03-07-2022 11:10:00 24.2 C 12.98 g/m*3 24.2 C 1.6 km/h
112 03-07-2022 11:15:00 24.4 C 12.69 g/m*3 24.4 C 4.8 km/h
113 03-07-2022 11:20:00 24.8 C 12.97 g/m*3 24.8 C 4.8 km/h
114 03-07-2022 11:25:00 25.2 C 11.87 g/m*3 25.2 C 3.2 km/h
115 03-07-2022 11:30:00 25.4 C 12.01 g/m*3 25.4 C 4.8 km/h
116 03-07-2022 11:35:00 25.7 C 11.73 g/m*3 25.7 C 6.4 km/h
117 03-07-2022 11:40:00 25.9 C 11.86 g/m*3 25.9 C 6.4 km/h
118 03-07-2022 11:45:00 26.1 C 12 g/m*3 26.1 C 4.8 km/h
119 03-07-2022 11:50:00 26.3 C 11.39 g/m*3 26.3 C 9.7 km/h
120 03-07-2022 11:55:00 26.6 C 12.33 g/m*3 26.6 C 3.2 km/h
121 03-07-2022 12:00:00 26.9 C 11.52 g/m*3 26.9 C 6.4 km/h
122 03-07-2022 12:05:00 27.3 C 11.77 g/m*3 27.3 C 11.3 km/h
123 03-07-2022 12:10:00 27.7 C 11.77 g/m*3 27.7 C 8.1 km/h
124 03-07-2022 12:15:00 28 C 11.69 g/m*3 28 C 8.1 km/h
125 03-07-2022 12:20:00 27.9 C 11.09 g/m*3 27.9 C 9.7 km/h
Sensor: Nr:Datum:Temp:Abs-Feuchte:Windchill:Wind:
Aussen-T/F 126 03-07-2022 12:25:00 27.8 C 11.3 g/m*3 27.8 C 4.8 km/h
127 03-07-2022 12:30:00 27.4 C 11.58 g/m*3 27.4 C 8.1 km/h
128 03-07-2022 12:35:00 27 C 11.84 g/m*3 27 C 6.4 km/h
129 03-07-2022 12:40:00 26.7 C 11.9 g/m*3 26.7 C 8.1 km/h
130 03-07-2022 12:45:00 26.3 C 11.88 g/m*3 26.3 C 8.1 km/h
131 03-07-2022 12:50:00 26.2 C 14.03 g/m*3 26.2 C 1.6 km/h
132 03-07-2022 12:55:00 26.1 C 12 g/m*3 26.1 C 4.8 km/h
133 03-07-2022 13:00:00 26.2 C 14.28 g/m*3 26.2 C 1.6 km/h
134 03-07-2022 13:05:00 26.4 C 12.45 g/m*3 26.4 C 3.2 km/h
135 03-07-2022 13:10:00 26.8 C 11.71 g/m*3 26.8 C 6.4 km/h
136 03-07-2022 13:15:00 27.2 C 11.71 g/m*3 27.2 C 9.7 km/h
137 03-07-2022 13:20:00 27.4 C 12.37 g/m*3 27.4 C 12.9 km/h
138 03-07-2022 13:25:00 27.8 C 11.57 g/m*3 27.8 C 11.3 km/h
139 03-07-2022 13:30:00 28.3 C 11.61 g/m*3 28.3 C 12.9 km/h
140 03-07-2022 13:35:00 28.8 C 11.36 g/m*3 28.8 C 8.1 km/h

Legende:
   Min
   Max


Maximal/Minimal-Werte vom 03.07.2022 - 03.07.2022

Sensor Min Max Avg
Temp
(Aussen-T/F)
12.9 °C
03-07-2022  05:50:00
28.8 °C
03-07-2022  13:35:00
17.64 °C
Abs-Feuchte
(Aussen-T/F)
10.09 g/m*3
03-07-2022  05:45:00
14.28 g/m*3
03-07-2022  13:00:00
11.22 g/m*3
Windchill
(Aussen-T/F)
12.9 C
03-07-2022  05:50:00
28.8 C
03-07-2022  13:35:00
17.51 C

Die Daten stammen von einer Davis Vantage Pro 2 Wetter-Station und werden unter Linux mit der Software wview2wettercgi und aufbereitet. Alle Angaben erfolgen ohne Gewähr für ihre Vollständigkeit oder Richtigkeit.
Kontakt: Rainer Krienke krienke@uni-koblenz.de . Meine Webseiten an der Uni Koblenz oder privat.
Version: $Revision: 0.78 $